Aviation Digital Data Service (ADDS)

Output produced by METARs form (1147 UTC 24 May 2022)
found at http://www.aviationweather.gov/metar/data/
 
VTBU 241130Z 26006KT 9999 FEW020 29/23 Q1007 NOSIG
VTBU 241100Z 25008KT 9999 FEW020 29/24 Q1007 NOSIG
VTBU 241030Z 24009KT 9999 FEW020 29/24 Q1006 NOSIG
VTBU 241000Z 24008KT 9999 FEW020 SCT100 29/24 Q1006 NOSIG
VTBU 240930Z 23010KT 9999 FEW020 SCT100 30/24 Q1007 NOSIG
VTBU 240900Z 24010KT 9999 FEW020 SCT100 30/26 Q1007 NOSIG
VTBU 240830Z 23010KT 9999 FEW020 SCT100 29/25 Q1008 NOSIG
VTBU 240800Z 23012KT 9000 VCSH FEW018CB SCT100 30/27 Q1008 NOSIG
VTBU 240730Z 20015KT 9999 SCT020 31/25 Q1008 NOSIG
VTBU 240700Z 20015KT 9999 FEW020 31/25 Q1008 NOSIG
VTBU 240630Z 19016KT 9999 FEW020 32/25 Q1008 NOSIG
VTBU 240600Z 21011KT 9999 FEW020 SCT100 32/25 Q1009 NOSIG
VTBU 240530Z 20013KT 9999 FEW020 SCT100 31/25 Q1009 NOSIG
VTBU 240500Z 20016KT 9999 FEW020 32/25 Q1009 NOSIG
VTBU 240430Z 19015KT 9999 FEW020 31/25 Q1009 NOSIG
VTBU 240400Z 20014KT 9999 FEW020 32/25 Q1009 NOSIG
VTBU 240330Z 19013KT 9999 FEW020 31/25 Q1009 NOSIG
VTBU 240300Z 20012KT 9999 FEW020 31/25 Q1010 NOSIG
VTBU 240230Z 19013KT 9999 FEW020 31/24 Q1010 NOSIG
VTBU 240200Z 21012KT 9999 FEW020 31/24 Q1009 NOSIG
VTBU 240130Z 20012KT 9999 FEW020 31/24 Q1009 NOSIG
VTBU 240100Z 21008KT 9999 FEW020 30/24 Q1009 NOSIG
VTBU 240030Z 21007KT 9999 FEW020 30/24 Q1008 NOSIG
VTBU 240000Z 20007KT 9999 FEW020 29/24 Q1008 NOSIG
VTBU 232330Z 21004KT 9999 FEW020 29/24 Q1008 NOSIG
VTBU 232300Z 22004KT 9999 FEW020 28/24 Q1007 NOSIG
VTBU 232230Z 22004KT 9999 FEW020 28/24 Q1007 NOSIG
VTBU 232200Z 21004KT 9999 FEW020 28/24 Q1006 NOSIG
VTBU 232130Z 22004KT 9999 FEW020 28/24 Q1006 NOSIG
VTBU 232100Z 23004KT 9999 FEW020 28/24 Q1006 NOSIG
VTBU 232030Z 23004KT 9999 FEW020 28/24 Q1006 NOSIG
VTBU 232000Z 23004KT 9999 FEW020 28/24 Q1006 NOSIG
VTBU 231930Z 23004KT 9999 FEW020 28/24 Q1006 NOSIG
VTBU 231900Z 23004KT 9999 FEW020 28/24 Q1006 NOSIG
VTBU 231830Z 22004KT 9999 FEW020 28/24 Q1006 NOSIG
VTBU 231800Z 22004KT 9999 FEW020 29/24 Q1006 NOSIG
VTBU 231730Z 22006KT 9999 FEW020 28/24 Q1007 NOSIG
VTBU 231700Z 22006KT 9999 FEW020 29/24 Q1007 NOSIG
VTBU 231630Z 22006KT 9999 FEW020 29/24 Q1007 NOSIG
VTBU 231600Z 22006KT 9999 FEW020 29/24 Q1007 NOSIG
VTBU 231530Z 23006KT 9999 FEW020 29/24 Q1007 NOSIG
VTBU 231500Z 25006KT 9999 FEW020 29/24 Q1007 NOSIG
VTBU 231430Z 22006KT 9999 FEW020 29/24 Q1006 NOSIG
VTBU 231400Z 22006KT 9999 FEW020 29/24 Q1006 NOSIG
VTBU 231330Z 21006KT 9999 FEW020 29/24 Q1006 NOSIG
VTBU 231300Z 21006KT 9999 FEW020 29/24 Q1005 NOSIG
VTBU 231230Z 21004KT 9999 FEW020 29/23 Q1005 NOSIG
VTBU 231200Z 20006KT 9999 FEW020 29/23 Q1004 NOSIG
VTBU 231130Z 21006KT 9999 FEW020 29/23 Q1004 NOSIG
VTBU 231100Z 21006KT 9999 FEW020 30/23 Q1004 NOSIG
TAF VTBU 241100Z 2412/2512 23008KT 9999 FEW020